Time;durP1;ratioP1;P1;durP2;ratioP2;P2;SDS_P1;SDS_P2;PMS_P1;PMS_P2;Temp;Humidity;BMP_temperature;BMP_pressure;BME280_temperature;BME280_humidity;BME280_pressure;Samples;Min_cycle;Max_cycle;Signal;HPM_P1;HPM_P2
2022/04/02 00:01:09;;;;;;;2.10;1.00;;;;;;;0.90;61.09;100604.69;4968686;28;20049;-83
2022/04/02 00:03:37;;;;;;;1.08;0.95;;;;;;;0.89;61.27;100607.22;4983481;28;20055;-85
2022/04/02 00:06:08;;;;;;;1.05;0.63;;;;;;;0.93;60.46;100601.31;4977170;28;20051;-84
2022/04/02 00:08:35;;;;;;;1.63;1.27;;;;;;;0.90;60.72;100604.69;4967897;28;20491;-85
2022/04/02 00:11:02;;;;;;;1.65;1.02;;;;;;;0.89;60.36;100597.78;4981213;28;20561;-84
2022/04/02 00:13:36;;;;;;;4.70;3.80;;;;;;;0.87;61.34;100602.00;5000482;28;20050;-84
2022/04/02 00:16:06;;;;;;;1.02;1.02;;;;;;;0.90;60.67;100590.91;4977891;28;20085;-86
2022/04/02 00:18:39;;;;;;;0.82;0.82;;;;;;;0.88;61.57;100593.44;4991071;28;20560;-91
2022/04/02 00:21:05;;;;;;;3.08;1.02;;;;;;;0.89;61.64;100602.06;4990901;28;20050;-88
2022/04/02 00:23:40;;;;;;;2.03;1.10;;;;;;;0.87;62.06;100599.41;4979684;28;20053;-84
2022/04/02 00:26:14;;;;;;;2.67;1.20;;;;;;;0.88;61.97;100601.16;4985147;28;20078;-85
2022/04/02 00:28:50;;;;;;;3.38;1.23;;;;;;;0.88;62.13;100608.03;4959156;28;20054;-82
2022/04/02 00:31:19;;;;;;;2.55;0.95;;;;;;;0.87;62.16;100599.41;4991799;28;20046;-82
2022/04/02 00:33:48;;;;;;;1.98;1.00;;;;;;;0.84;62.42;100611.34;4991151;28;20153;-84
2022/04/02 00:36:17;;;;;;;11.38;2.10;;;;;;;0.81;62.47;100599.25;4996332;28;20121;-82
2022/04/02 00:38:43;;;;;;;1.90;1.35;;;;;;;0.82;63.55;100606.13;4976185;28;20047;-84
2022/04/02 00:41:11;;;;;;;1.05;0.85;;;;;;;0.81;63.31;100617.28;4975838;28;20054;-81
2022/04/02 00:43:42;;;;;;;3.55;1.05;;;;;;;0.81;63.77;100612.13;4983336;28;20050;-84
2022/04/02 00:46:14;;;;;;;3.42;0.93;;;;;;;0.81;64.01;100613.00;4985624;28;20126;-83
2022/04/02 00:48:42;;;;;;;2.47;1.80;;;;;;;0.78;65.21;100620.66;5005334;28;20057;-82
2022/04/02 00:51:16;;;;;;;3.72;0.98;;;;;;;0.71;65.87;100615.25;4995186;28;20070;-83
2022/04/02 00:53:49;;;;;;;0.95;0.90;;;;;;;0.62;66.31;100619.28;4970410;28;20055;-86
2022/04/02 00:56:16;;;;;;;4.57;0.93;;;;;;;0.60;67.17;100614.91;4968663;28;20421;-85
2022/04/02 00:58:43;;;;;;;5.25;1.65;;;;;;;0.53;66.90;100620.72;4982663;28;20839;-86
2022/04/02 01:01:10;;;;;;;1.58;1.30;;;;;;;0.52;66.64;100624.97;4954615;28;20054;-81
2022/04/02 01:03:39;;;;;;;3.90;1.38;;;;;;;0.44;67.28;100626.44;4979944;28;20045;-83
2022/04/02 01:06:14;;;;;;;2.65;1.08;;;;;;;0.45;67.73;100617.91;4966358;28;20634;-84
2022/04/02 01:08:41;;;;;;;1.55;1.05;;;;;;;0.44;67.28;100629.00;4966468;28;20058;-84
2022/04/02 01:11:08;;;;;;;1.48;1.30;;;;;;;0.40;67.49;100625.47;4979683;28;20057;-84
2022/04/02 01:13:37;;;;;;;4.38;1.65;;;;;;;0.34;67.57;100635.59;4964779;28;20117;-83
2022/04/02 01:16:06;;;;;;;2.38;0.90;;;;;;;0.27;67.62;100638.78;4986619;28;20078;-83
2022/04/02 01:18:33;;;;;;;0.93;0.82;;;;;;;0.22;68.45;100635.16;4985204;28;20137;-87
2022/04/02 01:21:00;;;;;;;6.93;3.50;;;;;;;0.19;67.88;100638.53;4962654;28;20046;-87
2022/04/02 01:23:32;;;;;;;3.38;1.30;;;;;;;0.18;68.38;100639.34;4998911;28;20074;-83
2022/04/02 01:26:04;;;;;;;3.72;1.73;;;;;;;0.17;67.85;100637.63;4985180;28;20042;-86
2022/04/02 01:28:33;;;;;;;4.82;1.33;;;;;;;0.18;67.76;100647.06;4987962;28;20054;-87
2022/04/02 01:31:10;;;;;;;4.57;1.90;;;;;;;0.18;67.71;100641.91;4989200;28;20069;-88
2022/04/02 01:33:36;;;;;;;1.75;1.50;;;;;;;0.22;67.40;100638.66;5001106;28;20050;-88
2022/04/02 01:36:06;;;;;;;0.82;0.82;;;;;;;0.19;67.93;100645.38;4967939;28;20050;-84
2022/04/02 01:38:33;;;;;;;3.85;1.35;;;;;;;0.20;67.43;100647.13;4982586;28;20039;-84
2022/04/02 01:41:02;;;;;;;2.65;1.05;;;;;;;0.12;67.83;100650.31;4977463;28;20050;-85
2022/04/02 01:43:32;;;;;;;2.95;1.55;;;;;;;0.08;67.60;100657.88;4996806;28;20515;-85
2022/04/02 01:46:00;;;;;;;2.28;1.20;;;;;;;0.03;68.56;100655.16;4985891;28;20501;-82
2022/04/02 01:48:27;;;;;;;2.50;0.73;;;;;;;0.00;68.29;100652.50;4969550;28;20497;-83
2022/04/02 01:50:57;;;;;;;3.47;0.98;;;;;;;-0.02;68.36;100660.13;4951947;28;20050;-83
2022/04/02 01:53:28;;;;;;;3.97;1.20;;;;;;;-0.07;68.37;100664.25;4984595;28;20046;-83
2022/04/02 01:55:55;;;;;;;0.98;0.98;;;;;;;-0.12;68.74;100662.34;4980119;28;20352;-83
2022/04/02 01:58:25;;;;;;;3.05;2.58;;;;;;;-0.18;69.36;100666.47;4984460;28;20069;-86
2022/04/02 02:00:55;;;;;;;4.03;1.17;;;;;;;-0.23;69.52;100674.84;5014600;28;20422;-85
2022/04/02 02:03:25;;;;;;;0.57;0.57;;;;;;;-0.36;69.91;100676.97;5006410;28;20539;-84
2022/04/02 02:05:53;;;;;;;3.13;1.48;;;;;;;-0.44;70.42;100673.25;4989875;28;20074;-88
2022/04/02 02:08:23;;;;;;;4.72;1.20;;;;;;;-0.52;70.24;100679.84;4972697;28;20043;-82
2022/04/02 02:10:52;;;;;;;5.15;1.70;;;;;;;-0.61;71.33;100675.22;4988552;28;20775;-83
2022/04/02 02:13:20;;;;;;;1.30;1.20;;;;;;;-0.70;71.54;100673.19;4999769;28;20046;-82
2022/04/02 02:15:49;;;;;;;5.57;1.10;;;;;;;-0.79;71.94;100677.97;4998066;28;20050;-85
2022/04/02 02:18:17;;;;;;;6.45;3.30;;;;;;;-0.86;72.45;100682.00;4970006;28;20811;-84
2022/04/02 02:20:52;;;;;;;1.58;1.38;;;;;;;-0.91;72.30;100682.63;4963501;28;20494;-83
2022/04/02 02:23:19;;;;;;;5.05;1.08;;;;;;;-0.96;73.02;100685.06;4967896;28;20050;-85
2022/04/02 02:25:48;;;;;;;1.52;0.85;;;;;;;-1.05;73.13;100684.69;4995032;28;20057;-82
2022/04/02 02:28:17;;;;;;;3.25;1.38;;;;;;;-1.07;73.23;100691.47;4970016;28;20054;-86
2022/04/02 02:30:48;;;;;;;3.47;1.55;;;;;;;-1.12;73.65;100682.69;4983026;28;20125;-82
2022/04/02 02:35:59;;;;;;;2.00;1.20;;;;;;;-1.12;73.83;100700.69;4982957;28;20698;-83
2022/04/02 02:38:33;;;;;;;3.97;1.50;;;;;;;-1.15;73.81;100703.13;4968681;28;20650;-85
2022/04/02 02:40:59;;;;;;;;;;;;;;;-1.18;74.71;100701.31;4994909;28;20836;-83
2022/04/02 02:43:26;;;;;;;3.60;2.08;;;;;;;-1.20;74.53;100706.41;4980521;28;19926;-84
2022/04/02 02:45:53;;;;;;;2.53;1.65;;;;;;;-1.27;74.30;100703.53;4980666;28;20054;-83
2022/04/02 02:48:21;;;;;;;1.92;1.73;;;;;;;-1.31;74.49;100704.22;4982372;28;20044;-90
2022/04/02 02:50:48;;;;;;;1.48;1.00;;;;;;;-1.32;74.58;100711.03;4982371;28;20050;-90
2022/04/02 02:53:15;;;;;;;2.88;1.13;;;;;;;-1.28;74.50;100710.34;4994476;28;20054;-89
2022/04/02 02:55:42;;;;;;;2.17;1.30;;;;;;;-1.26;74.84;100715.56;4978414;28;20180;-85
2022/04/02 02:58:11;;;;;;;1.77;1.05;;;;;;;-1.24;74.61;100706.22;4995642;28;20052;-81
2022/04/02 03:00:38;;;;;;;3.40;1.73;;;;;;;-1.29;74.63;100715.41;4999864;28;20038;-84
2022/04/02 03:03:14;;;;;;;;;;;;;;;;;;;;;
2022/04/02 03:05:41;;;;;;;1.52;1.27;;;;;;;-1.31;74.67;100709.38;4967604;28;20061;-86
2022/04/02 03:08:08;;;;;;;5.22;1.63;;;;;;;-1.37;74.72;100721.16;4982002;28;20108;-83
2022/04/02 03:10:35;;;;;;;1.67;1.58;;;;;;;-1.42;75.33;100717.50;4985112;28;20117;-82
2022/04/02 03:13:04;;;;;;;2.25;1.80;;;;;;;-1.48;75.36;100722.38;5002434;28;20042;-82
2022/04/02 03:15:34;;;;;;;1.08;1.00;;;;;;;-1.48;75.41;100719.81;4970626;28;20039;-83
2022/04/02 03:18:07;;;;;;;4.85;1.40;;;;;;;-1.55;75.49;100720.38;4987768;28;20054;-87
2022/04/02 03:20:38;;;;;;;1.83;1.70;;;;;;;-1.56;75.64;100716.94;4984438;28;20049;-82
2022/04/02 03:23:06;;;;;;;2.70;1.77;;;;;;;-1.62;75.38;100728.66;4994671;28;20046;-90
2022/04/02 03:25:34;;;;;;;5.15;1.48;;;;;;;-1.67;76.09;100726.78;4990075;28;20135;-86
2022/04/02 03:28:00;;;;;;;2.00;1.85;;;;;;;-1.57;76.65;100738.28;4988829;28;20137;-82
2022/04/02 03:30:27;;;;;;;3.53;1.45;;;;;;;-1.48;76.00;100726.66;4989084;28;20038;-83
2022/04/02 03:32:55;;;;;;;3.17;1.50;;;;;;;-1.43;76.08;100732.84;4988610;28;20129;-82
2022/04/02 03:35:24;;;;;;;3.92;1.42;;;;;;;-1.36;75.61;100737.41;5000870;28;20077;-87
2022/04/02 03:37:55;;;;;;;3.35;1.40;;;;;;;-1.37;76.06;100733.09;4966498;28;20050;-82
2022/04/02 03:40:26;;;;;;;4.22;1.58;;;;;;;-1.37;75.68;100733.97;5000548;28;20050;-82
2022/04/02 03:42:54;;;;;;;6.03;2.28;;;;;;;-1.35;75.59;100734.91;4984230;28;20492;-82
2022/04/02 03:45:23;;;;;;;2.97;1.23;;;;;;;-1.39;75.29;100738.16;4973162;28;20478;-82
2022/04/02 03:47:50;;;;;;;2.83;2.03;;;;;;;-1.42;75.64;100742.28;5001232;28;20046;-82
2022/04/02 03:50:22;;;;;;;2.90;1.73;;;;;;;-1.50;75.96;100742.88;4976503;28;20070;-85
2022/04/02 03:52:49;;;;;;;7.05;1.88;;;;;;;-1.51;76.25;100743.69;4978648;28;20054;-86
2022/04/02 03:55:16;;;;;;;2.80;1.58;;;;;;;-1.52;76.30;100741.91;4994477;28;20042;-82
2022/04/02 03:57:49;;;;;;;2.20;1.02;;;;;;;-1.54;77.13;100747.81;4997451;28;20038;-82
2022/04/02 04:00:19;;;;;;;4.88;1.60;;;;;;;-1.50;76.61;100750.56;4993529;28;20054;-84
2022/04/02 04:02:49;;;;;;;1.88;1.52;;;;;;;-1.51;76.53;100751.38;4980651;28;20105;-82
2022/04/02 04:05:16;;;;;;;2.40;1.98;;;;;;;-1.55;76.36;100756.31;4978415;28;20050;-87
2022/04/02 04:07:47;;;;;;;1.77;1.67;;;;;;;-1.53;77.11;100757.25;4995951;28;20121;-86
2022/04/02 04:10:14;;;;;;;1.75;1.33;;;;;;;-1.53;76.98;100755.56;4989786;28;20078;-85
2022/04/02 04:12:41;;;;;;;2.58;1.20;;;;;;;-1.53;77.58;100755.56;4984810;28;20406;-83
2022/04/02 04:15:10;;;;;;;2.70;1.52;;;;;;;-1.47;76.31;100754.97;4995826;28;20061;-88
2022/04/02 04:17:38;;;;;;;1.77;1.23;;;;;;;-1.45;76.85;100763.59;4983471;28;20061;-82
2022/04/02 04:20:09;;;;;;;3.03;1.25;;;;;;;-1.43;76.73;100767.09;4965093;28;20880;-88
2022/04/02 04:22:36;;;;;;;2.95;1.60;;;;;;;-1.43;75.98;100766.25;4981570;28;20121;-85
2022/04/02 04:25:03;;;;;;;5.00;1.65;;;;;;;-1.39;75.75;100771.53;4965004;28;20166;-82
2022/04/02 04:27:35;;;;;;;2.13;1.60;;;;;;;-1.40;76.13;100777.50;4997481;28;20084;-84
2022/04/02 04:30:02;;;;;;;0.93;0.90;;;;;;;-1.38;75.93;100772.44;4962335;28;20854;-85
2022/04/02 04:32:30;;;;;;;1.45;1.35;;;;;;;-1.39;75.69;100774.13;4966419;28;20389;-82
2022/04/02 04:34:56;;;;;;;4.72;1.88;;;;;;;-1.39;75.49;100775.81;4997929;28;20077;-81
2022/04/02 04:37:23;;;;;;;3.97;1.67;;;;;;;-1.36;75.75;100781.06;4979157;28;20057;-82
2022/04/02 04:39:50;;;;;;;3.20;1.50;;;;;;;-1.32;75.17;100788.09;4994257;28;20054;-82
2022/04/02 04:42:17;;;;;;;1.92;1.73;;;;;;;-1.31;74.86;100789.84;4965895;28;20544;-84
2022/04/02 04:44:43;;;;;;;1.77;1.58;;;;;;;-1.31;75.03;100797.56;4972812;28;20054;-85
2022/04/02 04:47:10;;;;;;;1.90;1.67;;;;;;;-1.32;74.73;100798.34;5000871;28;20082;-84
2022/04/02 04:49:37;;;;;;;3.85;2.92;;;;;;;-1.23;74.60;100798.72;4979294;28;20035;-83
2022/04/02 04:52:04;;;;;;;3.83;1.60;;;;;;;-1.23;74.71;100797.88;4979228;28;20050;-84
2022/04/02 04:54:31;;;;;;;3.42;1.83;;;;;;;-1.18;74.00;100804.94;4979142;28;20481;-84
2022/04/02 04:56:58;;;;;;;2.38;1.95;;;;;;;-1.15;74.30;100811.03;4980984;28;20054;-86
2022/04/02 04:59:24;;;;;;;1.65;1.55;;;;;;;-1.12;74.18;100804.34;4951214;28;20074;-81
2022/04/02 05:01:51;;;;;;;2.83;1.58;;;;;;;-1.09;73.40;100807.00;4984109;28;21560;-81
2022/04/02 05:04:18;;;;;;;3.00;1.35;;;;;;;-1.05;73.65;100808.88;4980215;28;21028;-83
2022/04/02 05:06:46;;;;;;;6.28;2.03;;;;;;;-1.01;73.47;100818.47;4963258;28;20046;-83
2022/04/02 05:09:12;;;;;;;1.67;1.50;;;;;;;-1.03;73.54;100808.94;4961764;28;20049;-82
2022/04/02 05:11:41;;;;;;;3.78;1.70;;;;;;;-1.00;73.11;100820.22;4973306;28;20053;-81
2022/04/02 05:14:12;;;;;;;4.72;1.77;;;;;;;-0.97;73.39;100823.75;4980242;28;20091;-82
2022/04/02 05:16:39;;;;;;;2.20;1.70;;;;;;;-0.92;72.75;100829.97;4971554;28;20053;-84
2022/04/02 05:19:06;;;;;;;4.88;1.60;;;;;;;-0.89;73.00;100824.94;4969952;28;20046;-82
2022/04/02 05:21:32;;;;;;;1.98;1.73;;;;;;;-0.82;72.53;100826.94;4969390;28;20074;-83
2022/04/02 05:23:59;;;;;;;4.10;1.92;;;;;;;-0.78;72.21;100828.81;4981355;28;20486;-81
2022/04/02 05:26:26;;;;;;;2.90;2.05;;;;;;;-0.77;72.03;100828.00;4980896;28;20042;-83
2022/04/02 05:28:54;;;;;;;4.13;1.27;;;;;;;-0.75;72.23;100830.63;4969943;28;20922;-83
2022/04/02 05:31:20;;;;;;;2.47;0.93;;;;;;;-0.72;72.16;100828.19;4955442;28;20070;-88
2022/04/02 05:33:47;;;;;;;8.32;3.17;;;;;;;-0.69;71.85;100836.91;4951153;28;20405;-82
2022/04/02 05:36:14;;;;;;;7.25;3.67;;;;;;;-0.65;71.58;100837.00;4970247;28;20057;-84
2022/04/02 05:38:41;;;;;;;2.25;1.52;;;;;;;-0.59;71.31;100839.81;4947740;28;20046;-80
2022/04/02 05:41:08;;;;;;;2.47;1.35;;;;;;;-0.56;71.61;100845.06;4965530;28;20069;-81
2022/04/02 05:43:38;;;;;;;2.08;1.88;;;;;;;-0.54;71.49;100844.31;4965281;28;20496;-82
2022/04/02 05:46:05;;;;;;;3.67;1.77;;;;;;;-0.53;71.03;100848.66;4977894;28;20054;-87
2022/04/02 05:48:32;;;;;;;2.35;1.70;;;;;;;-0.49;70.95;100853.94;4966557;28;20057;-86
2022/04/02 05:51:00;;;;;;;5.28;1.70;;;;;;;-0.46;70.76;100849.75;4966342;28;20057;-82
2022/04/02 05:53:27;;;;;;;2.03;0.95;;;;;;;-0.43;71.04;100857.63;4952666;28;20089;-84
2022/04/02 05:55:55;;;;;;;3.78;1.60;;;;;;;-0.39;71.36;100861.16;4965614;28;20161;-83
2022/04/02 05:58:22;;;;;;;5.53;2.10;;;;;;;-0.34;71.49;100857.97;4968836;28;20080;-85
2022/04/02 06:00:50;;;;;;;2.58;2.00;;;;;;;-0.27;70.62;100869.38;4953017;28;20128;-83
2022/04/02 06:03:19;;;;;;;3.15;1.58;;;;;;;-0.23;70.69;100863.53;4969562;28;20054;-86
2022/04/02 06:05:54;;;;;;;1.60;1.50;;;;;;;-0.19;70.20;100869.66;4987444;28;20110;-85
2022/04/02 06:08:21;;;;;;;3.17;1.52;;;;;;;-0.16;70.33;100869.78;4972664;28;20115;-85
2022/04/02 06:10:48;;;;;;;1.70;1.60;;;;;;;-0.10;69.83;100875.16;4969867;28;20486;-90
2022/04/02 06:13:15;;;;;;;1.42;1.33;;;;;;;-0.10;69.82;100882.88;4972708;28;20042;-92
2022/04/02 06:15:50;;;;;;;2.53;1.65;;;;;;;-0.05;69.95;100877.94;4989862;28;20046;-86
2022/04/02 06:18:18;;;;;;;1.92;1.35;;;;;;;-0.01;69.21;100888.38;4976852;28;20096;-82
2022/04/02 06:20:50;;;;;;;3.00;1.13;;;;;;;0.05;68.86;100890.28;4970281;28;20042;-81
2022/04/02 06:23:29;;;;;;;5.13;1.83;;;;;;;0.12;68.74;100889.72;4957732;28;20063;-82
2022/04/02 06:25:56;;;;;;;4.60;1.48;;;;;;;0.21;69.14;100896.00;4971528;28;20042;-85
2022/04/02 06:28:23;;;;;;;4.38;3.22;;;;;;;0.29;68.31;100895.50;4976575;28;20050;-84
2022/04/02 06:30:50;;;;;;;2.78;1.60;;;;;;;0.35;67.88;100897.41;4944026;28;20054;-86
2022/04/02 06:33:19;;;;;;;3.20;1.80;;;;;;;0.40;67.36;100892.44;4976399;28;20066;-84
2022/04/02 06:35:46;;;;;;;2.58;1.63;;;;;;;0.45;66.81;100899.50;4960225;28;20051;-82
2022/04/02 06:38:13;;;;;;;2.20;1.50;;;;;;;0.53;66.62;100907.50;4981329;28;20499;-90
2022/04/02 06:40:44;;;;;;;3.00;1.30;;;;;;;0.54;66.63;100909.25;4958308;28;20081;-83
2022/04/02 06:43:13;;;;;;;5.15;1.58;;;;;;;0.57;65.42;100909.34;4986468;28;20054;-85
2022/04/02 06:45:40;;;;;;;5.43;1.92;;;;;;;0.60;65.21;100906.00;4965278;28;20054;-90
2022/04/02 06:48:17;;;;;;;3.47;1.67;;;;;;;0.63;64.83;100917.31;4987925;28;20039;-88
2022/04/02 06:50:48;;;;;;;3.40;1.90;;;;;;;0.64;65.58;100915.63;4986360;28;20134;-86
2022/04/02 06:53:15;;;;;;;1.95;1.83;;;;;;;0.69;65.50;100915.78;4965740;28;20057;-84
2022/04/02 06:55:42;;;;;;;2.45;1.70;;;;;;;0.77;65.46;100916.91;4978841;28;20117;-86
2022/04/02 06:58:19;;;;;;;2.08;1.70;;;;;;;0.84;64.61;100913.75;4979767;28;20137;-82
2022/04/02 07:00:59;;;;;;;3.15;2.00;;;;;;;0.85;64.48;100920.66;4973021;28;20038;-84
2022/04/02 07:03:27;;;;;;;9.20;1.95;;;;;;;0.84;64.50;100924.06;4990690;28;20046;-85
2022/04/02 07:06:04;;;;;;;2.15;1.85;;;;;;;0.91;64.56;100933.78;4964503;28;20561;-81
2022/04/02 07:08:33;;;;;;;3.00;1.88;;;;;;;0.95;63.74;100924.41;4976285;28;20146;-85
2022/04/02 07:10:59;;;;;;;6.25;2.38;;;;;;;0.99;64.39;100921.13;4946764;28;20482;-83
2022/04/02 07:13:27;;;;;;;1.90;1.42;;;;;;;1.14;64.01;100926.78;4983241;28;20050;-86
2022/04/02 07:15:54;;;;;;;1.70;1.60;;;;;;;1.15;63.54;100933.72;4971028;28;20050;-81
2022/04/02 07:18:26;;;;;;;4.50;1.90;;;;;;;1.20;63.22;100926.16;5002854;28;20150;-90
2022/04/02 07:20:53;;;;;;;2.85;1.50;;;;;;;1.28;62.67;100927.28;4984598;28;20042;-85
2022/04/02 07:23:22;;;;;;;1.92;1.33;;;;;;;1.29;63.14;100925.56;4995987;28;20039;-89
2022/04/02 07:25:50;;;;;;;2.08;1.60;;;;;;;1.30;62.33;100941.09;5000709;28;20054;-89
2022/04/02 07:28:25;;;;;;;3.45;1.45;;;;;;;1.41;62.58;100932.81;4978325;28;20054;-81
2022/04/02 07:30:54;;;;;;;2.47;1.48;;;;;;;1.43;62.04;100937.19;4973557;28;20062;-79
2022/04/02 07:33:21;;;;;;;1.90;1.38;;;;;;;1.48;62.21;100947.69;4960385;28;20039;-89
2022/04/02 07:36:56;;;;;;;1.58;1.33;;;;;;;1.60;61.92;100940.38;4984326;28;20645;-82
2022/04/02 07:39:56;;;;;;;1.35;1.25;;;;;;;1.73;62.04;100933.84;4967992;28;20054;-81
2022/04/02 07:43:03;;;;;;;1.73;1.30;;;;;;;1.91;61.47;100946.47;4934744;28;20104;-87
2022/04/02 07:45:41;;;;;;;2.70;1.27;;;;;;;1.99;61.14;100951.88;4971503;28;20396;-83
2022/04/02 07:48:11;;;;;;;2.60;1.60;;;;;;;2.12;60.05;100948.81;4984200;28;20117;-82
2022/04/02 07:50:47;;;;;;;2.22;1.95;;;;;;;2.21;59.85;100955.13;4963460;28;20394;-85
2022/04/02 07:53:22;;;;;;;4.38;1.65;;;;;;;2.38;60.57;100961.66;4953347;28;20042;-82
2022/04/02 07:55:59;;;;;;;2.47;1.60;;;;;;;2.64;60.38;100953.78;4950207;28;20046;-87
2022/04/02 07:58:35;;;;;;;2.70;1.50;;;;;;;2.73;57.84;100958.34;4968574;28;20042;-82
2022/04/02 08:01:07;;;;;;;2.28;1.42;;;;;;;2.84;57.43;100958.63;4955323;28;20610;-82
2022/04/02 08:03:35;;;;;;;3.80;1.98;;;;;;;2.84;58.70;100956.91;4971102;28;20113;-85
2022/04/02 08:06:03;;;;;;;4.53;1.60;;;;;;;2.98;57.31;100963.34;4953691;28;20049;-82
2022/04/02 08:08:31;;;;;;;2.28;1.60;;;;;;;3.10;58.01;100964.50;4985071;28;20066;-85
2022/04/02 08:11:20;;;;;;;4.82;2.67;;;;;;;3.33;57.25;100966.84;4973383;28;20073;-85
2022/04/02 08:13:50;;;;;;;3.58;2.05;;;;;;;3.56;57.07;100965.69;4980741;28;20092;-81
2022/04/02 08:16:21;;;;;;;1.65;1.50;;;;;;;3.83;55.97;100961.16;4974301;28;20105;-81
2022/04/02 08:18:49;;;;;;;4.78;2.92;;;;;;;4.13;54.93;100977.41;4957946;28;20125;-84
2022/04/02 08:21:20;;;;;;;5.60;2.80;;;;;;;4.40;54.13;100971.06;4946909;28;20118;-88
2022/04/02 08:23:46;;;;;;;3.90;2.13;;;;;;;4.71;53.62;100969.13;4959071;28;20472;-84
2022/04/02 08:26:46;;;;;;;3.22;2.88;;;;;;;5.28;52.50;100961.53;4971560;28;20046;-84
2022/04/02 08:29:50;;;;;;;4.88;2.72;;;;;;;5.83;50.11;100971.06;4960129;28;20078;-82
2022/04/02 08:32:45;;;;;;;1.38;1.25;;;;;;;6.23;48.34;100964.78;4995092;28;20038;-84
2022/04/02 08:35:14;;;;;;;3.15;1.40;;;;;;;6.46;47.14;100974.63;4976024;28;20536;-80
2022/04/02 08:38:05;;;;;;;3.28;2.67;;;;;;;6.53;46.46;100980.78;4961805;28;20046;-85
2022/04/02 08:41:19;;;;;;;1.58;1.20;;;;;;;6.42;47.11;100980.63;4992472;28;20042;-84
2022/04/02 08:44:10;;;;;;;1.60;1.50;;;;;;;6.56;45.73;100978.22;4993657;28;20106;-82
2022/04/02 08:47:07;;;;;;;5.13;2.30;;;;;;;6.74;46.29;100985.34;4991517;28;20057;-83
2022/04/02 08:49:37;;;;;;;2.13;1.50;;;;;;;6.75;43.95;100980.19;4977375;28;20039;-81
2022/04/02 09:01:12;;;;;;;1.83;1.50;;;;;;;5.62;46.08;100985.50;4924104;29;20067;-84
2022/04/02 09:03:58;;;;;;;3.75;1.92;;;;;;;5.52;45.93;100978.38;4910540;29;20054;-84
2022/04/02 09:07:00;;;;;;;2.17;1.67;;;;;;;5.20;47.08;100986.47;4928487;29;20052;-84
2022/04/02 09:10:02;;;;;;;2.15;1.38;;;;;;;5.14;47.03;100984.63;4912842;29;20055;-82
2022/04/02 09:12:30;;;;;;;2.03;1.73;;;;;;;5.10;47.63;100993.22;4931394;29;20396;-80
2022/04/02 09:15:13;;;;;;;3.30;1.80;;;;;;;4.85;47.83;100995.34;4936900;29;20043;-83
2022/04/02 09:17:51;;;;;;;2.60;1.95;;;;;;;4.70;47.95;100998.47;4925774;29;20051;-83
2022/04/02 09:20:56;;;;;;;6.38;2.03;;;;;;;4.75;48.45;100996.84;4915601;29;20044;-84
2022/04/02 09:23:44;;;;;;;2.78;1.95;;;;;;;4.70;48.13;100997.63;4912742;29;20754;-83
2022/04/02 09:26:54;;;;;;;3.83;2.67;;;;;;;4.63;49.28;100996.63;4921935;29;20055;-85
2022/04/02 09:29:38;;;;;;;2.60;1.45;;;;;;;4.68;49.03;100987.22;4935398;29;20054;-86
2022/04/02 09:32:38;;;;;;;3.47;1.60;;;;;;;4.82;48.19;100994.38;4934034;29;20055;-85
2022/04/02 09:35:34;;;;;;;4.03;1.63;;;;;;;4.87;48.08;101008.34;4920239;29;20088;-84
2022/04/02 09:38:59;;;;;;;5.53;2.55;;;;;;;4.75;47.15;101004.63;4942751;29;20035;-84
2022/04/02 09:41:45;;;;;;;1.67;1.58;;;;;;;4.73;47.05;100993.38;4897485;29;20052;-82
2022/04/02 09:45:00;;;;;;;2.13;1.40;;;;;;;4.70;46.96;100992.44;4909484;29;20097;-84
2022/04/02 09:48:05;;;;;;;3.70;1.48;;;;;;;4.34;47.64;100995.97;4943549;29;20102;-86
2022/04/02 09:50:35;;;;;;;2.92;1.27;;;;;;;4.10;47.76;100999.78;4912924;29;20028;-83
2022/04/02 09:53:16;;;;;;;3.20;2.25;;;;;;;3.98;47.89;100995.19;4908499;29;20150;-83
2022/04/02 09:56:02;;;;;;;3.95;2.05;;;;;;;3.96;48.71;100995.16;4902288;29;20406;-83
2022/04/02 09:59:06;;;;;;;3.30;2.13;;;;;;;3.98;48.09;100998.63;4928897;29;20048;-81
2022/04/02 10:02:02;;;;;;;4.43;1.58;;;;;;;4.02;48.23;100996.13;4913984;29;20056;-81
2022/04/02 10:04:54;;;;;;;2.72;2.05;;;;;;;4.37;47.64;100991.75;4914346;29;20086;-82
2022/04/02 10:07:51;;;;;;;2.70;1.75;;;;;;;4.80;45.95;100992.63;4903786;29;20053;-83
2022/04/02 10:10:25;;;;;;;1.60;1.45;;;;;;;5.07;45.86;100993.13;4912280;29;20063;-83
2022/04/02 10:12:54;;;;;;;;;;;;;;;5.55;44.85;100988.81;4937835;28;20197;-83
2022/04/02 10:15:27;;;;;;;6.32;2.83;;;;;;;5.91;44.55;100982.47;4897781;29;20413;-83
2022/04/02 10:17:54;;;;;;;5.63;2.10;;;;;;;6.04;43.94;100991.38;4912877;29;20071;-82
2022/04/02 10:20:28;;;;;;;2.97;1.75;;;;;;;6.19;43.72;100982.91;4892046;29;20063;-86
2022/04/02 10:23:25;;;;;;;1.92;1.40;;;;;;;6.42;43.17;100981.50;4891486;29;20051;-84
2022/04/02 10:26:19;;;;;;;4.22;1.40;;;;;;;6.58;42.58;100981.69;4892950;29;20054;-83
2022/04/02 10:28:52;;;;;;;3.13;1.80;;;;;;;6.66;42.59;100976.59;4904941;29;20187;-84
2022/04/02 10:31:50;;;;;;;1.50;1.30;;;;;;;6.61;42.84;100980.03;4929156;29;20054;-84
2022/04/02 10:34:37;;;;;;;4.20;1.30;;;;;;;6.26;43.87;100985.63;4894051;29;20085;-83
2022/04/02 10:37:13;;;;;;;4.68;1.10;;;;;;;5.86;44.08;100979.78;4906145;29;20039;-84
2022/04/02 10:39:54;;;;;;;3.15;2.05;;;;;;;5.37;45.05;100989.38;4909402;29;20043;-83
2022/04/02 10:42:30;;;;;;;2.78;1.30;;;;;;;5.00;46.33;100993.88;4904739;29;20048;-83
2022/04/02 10:45:14;;;;;;;2.13;1.13;;;;;;;4.86;46.95;100994.47;4906694;29;20111;-83
2022/04/02 10:48:14;;;;;;;7.78;4.03;;;;;;;4.75;47.00;100994.25;4913108;29;20044;-84
2022/04/02 10:50:45;;;;;;;5.20;1.80;;;;;;;4.83;46.82;100996.16;4895377;29;20051;-83
2022/04/02 10:53:17;;;;;;;11.13;4.97;;;;;;;5.00;46.01;100997.34;4900434;29;20083;-85
2022/04/02 10:55:49;;;;;;;1.65;1.30;;;;;;;5.24;45.89;100990.84;4924630;29;20075;-84
2022/04/02 10:58:22;;;;;;;1.63;1.52;;;;;;;5.50;44.88;100998.25;4894135;29;20055;-86
2022/04/02 11:00:49;;;;;;;4.60;1.65;;;;;;;5.63;44.16;100990.69;4912145;29;20078;-84
2022/04/02 11:03:43;;;;;;;1.67;1.45;;;;;;;5.80;43.74;101001.38;4925998;29;20562;-83
2022/04/02 11:06:11;;;;;;;2.80;1.30;;;;;;;6.29;43.29;100985.66;4893177;29;20043;-84
2022/04/02 11:08:37;;;;;;;1.08;1.08;;;;;;;7.33;39.45;100993.84;4909436;29;20387;-84
2022/04/02 11:11:24;;;;;;;0.73;0.73;;;;;;;8.48;38.23;100982.56;4891129;29;20058;-85
2022/04/02 11:14:03;;;;;;;6.72;4.32;;;;;;;9.47;35.66;100983.69;4893990;29;20055;-83
2022/04/02 11:16:43;;;;;;;1.33;1.23;;;;;;;9.35;33.93;100966.28;4910676;29;20530;-84
2022/04/02 11:22:05;;;;;;;2.13;1.90;;;;;;;7.74;36.30;100986.41;4921414;29;20091;-83
2022/04/02 11:24:51;;;;;;;5.65;2.45;;;;;;;7.26;37.38;100988.56;4897004;29;20059;-81
2022/04/02 11:27:19;;;;;;;3.97;2.88;;;;;;;6.55;38.92;100985.13;4896730;29;20047;-83
2022/04/02 11:29:51;;;;;;;4.28;2.30;;;;;;;6.03;39.40;100987.88;4907987;29;20098;-80
2022/04/02 11:32:26;;;;;;;5.10;3.63;;;;;;;5.55;40.90;100994.00;4897665;29;20052;-83
2022/04/02 11:34:54;;;;;;;2.22;1.50;;;;;;;5.31;41.36;100997.94;4910032;29;20051;-82
2022/04/02 11:37:30;;;;;;;7.03;4.43;;;;;;;5.18;40.70;100999.41;4892957;29;20055;-81
2022/04/02 11:40:06;;;;;;;3.47;1.90;;;;;;;4.85;40.93;100999.63;4889318;29;20056;-83
2022/04/02 11:42:38;;;;;;;2.17;1.33;;;;;;;4.78;41.58;100996.03;4906112;29;20067;-85
2022/04/02 11:45:09;;;;;;;1.80;1.70;;;;;;;4.89;41.45;101004.03;4924713;29;20055;-82
2022/04/02 11:47:50;;;;;;;3.00;1.42;;;;;;;5.13;41.56;100995.84;4913190;29;20123;-83
2022/04/02 11:50:30;;;;;;;1.55;1.27;;;;;;;5.55;40.57;100994.88;4904350;29;20518;-83
2022/04/02 11:52:59;;;;;;;1.85;1.63;;;;;;;6.86;37.13;100995.94;4895873;29;20055;-84
2022/04/02 11:55:28;;;;;;;0.88;0.88;;;;;;;8.15;35.05;100997.97;4896211;29;20067;-84
2022/04/02 11:58:07;;;;;;;1.85;1.30;;;;;;;8.78;34.44;100987.88;4911762;29;20067;-83
2022/04/02 12:00:37;;;;;;;2.85;1.90;;;;;;;8.82;34.25;100990.53;4910251;29;20067;-84
2022/04/02 12:03:08;;;;;;;1.13;0.73;;;;;;;7.88;35.16;100994.28;4910810;29;20097;-85
2022/04/02 12:05:43;;;;;;;1.80;1.70;;;;;;;7.08;36.62;100990.97;4912211;29;20044;-85
2022/04/02 12:08:11;;;;;;;2.38;1.08;;;;;;;6.50;38.10;100997.22;4911733;29;20465;-83
2022/04/02 12:10:47;;;;;;;1.58;0.90;;;;;;;6.06;39.40;100995.75;4908692;29;20048;-83
2022/04/02 12:13:17;;;;;;;0.93;0.90;;;;;;;5.79;39.99;100988.34;4877897;29;20056;-86
2022/04/02 12:16:04;;;;;;;1.42;0.82;;;;;;;5.57;40.07;100998.38;4911523;29;20366;-83